sensor_id;sensor_type;location;lat;lon;timestamp;temperature;humidity
58469;DHT22;44257;44.804;10.220;2022-08-30T00:00:19;23.10;99.90
58469;DHT22;44257;44.804;10.220;2022-08-30T00:03:05;23.10;99.90
58469;DHT22;44257;44.804;10.220;2022-08-30T00:05:32;23.10;99.90
58469;DHT22;44257;44.804;10.220;2022-08-30T00:07:58;23.10;99.90
58469;DHT22;44257;44.804;10.220;2022-08-30T00:10:25;23.10;99.90
58469;DHT22;44257;44.804;10.220;2022-08-30T00:12:53;23.10;99.90
58469;DHT22;44257;44.804;10.220;2022-08-30T00:15:20;23.10;99.90
58469;DHT22;44257;44.804;10.220;2022-08-30T00:17:47;23.10;99.90
58469;DHT22;44257;44.804;10.220;2022-08-30T00:20:16;23.10;99.90
58469;DHT22;44257;44.804;10.220;2022-08-30T00:22:44;23.00;99.90
58469;DHT22;44257;44.804;10.220;2022-08-30T00:25:10;22.90;99.90
58469;DHT22;44257;44.804;10.220;2022-08-30T00:27:37;22.90;99.90
58469;DHT22;44257;44.804;10.220;2022-08-30T00:30:04;22.90;99.90
58469;DHT22;44257;44.804;10.220;2022-08-30T00:32:31;22.90;99.90
58469;DHT22;44257;44.804;10.220;2022-08-30T00:34:57;22.90;99.90
58469;DHT22;44257;44.804;10.220;2022-08-30T00:37:24;22.90;99.90
58469;DHT22;44257;44.804;10.220;2022-08-30T00:39:50;22.90;99.90
58469;DHT22;44257;44.804;10.220;2022-08-30T00:42:17;22.90;99.90
58469;DHT22;44257;44.804;10.220;2022-08-30T00:44:44;22.90;99.90
58469;DHT22;44257;44.804;10.220;2022-08-30T00:47:11;22.80;99.90
58469;DHT22;44257;44.804;10.220;2022-08-30T00:49:41;22.80;99.90
58469;DHT22;44257;44.804;10.220;2022-08-30T00:52:08;22.80;99.90
58469;DHT22;44257;44.804;10.220;2022-08-30T00:54:36;22.80;99.90
58469;DHT22;44257;44.804;10.220;2022-08-30T00:57:04;22.80;99.90
58469;DHT22;44257;44.804;10.220;2022-08-30T00:59:32;22.80;99.90
58469;DHT22;44257;44.804;10.220;2022-08-30T01:02:00;22.80;99.90
58469;DHT22;44257;44.804;10.220;2022-08-30T01:04:27;22.80;99.90
58469;DHT22;44257;44.804;10.220;2022-08-30T01:06:54;22.80;99.90
58469;DHT22;44257;44.804;10.220;2022-08-30T01:09:20;22.70;99.90
58469;DHT22;44257;44.804;10.220;2022-08-30T01:11:47;22.70;99.90
58469;DHT22;44257;44.804;10.220;2022-08-30T01:14:14;22.60;99.90
58469;DHT22;44257;44.804;10.220;2022-08-30T01:16:42;22.60;99.90
58469;DHT22;44257;44.804;10.220;2022-08-30T01:19:33;22.50;99.90
58469;DHT22;44257;44.804;10.220;2022-08-30T01:24:48;22.50;99.90
58469;DHT22;44257;44.804;10.220;2022-08-30T01:27:15;22.50;99.90
58469;DHT22;44257;44.804;10.220;2022-08-30T01:29:42;22.50;99.90
58469;DHT22;44257;44.804;10.220;2022-08-30T01:32:23;22.50;99.90
58469;DHT22;44257;44.804;10.220;2022-08-30T01:34:49;22.40;99.90
58469;DHT22;44257;44.804;10.220;2022-08-30T01:37:21;22.30;99.90
58469;DHT22;44257;44.804;10.220;2022-08-30T01:39:48;22.30;99.90
58469;DHT22;44257;44.804;10.220;2022-08-30T01:42:15;22.30;99.90
58469;DHT22;44257;44.804;10.220;2022-08-30T01:44:44;22.30;99.90
58469;DHT22;44257;44.804;10.220;2022-08-30T01:47:12;22.20;99.90
58469;DHT22;44257;44.804;10.220;2022-08-30T01:49:38;22.20;99.90
58469;DHT22;44257;44.804;10.220;2022-08-30T01:52:05;22.20;99.90
58469;DHT22;44257;44.804;10.220;2022-08-30T01:54:34;22.20;99.90
58469;DHT22;44257;44.804;10.220;2022-08-30T01:57:01;22.10;99.90
58469;DHT22;44257;44.804;10.220;2022-08-30T01:59:27;22.10;99.90
58469;DHT22;44257;44.804;10.220;2022-08-30T02:01:54;22.10;99.90
58469;DHT22;44257;44.804;10.220;2022-08-30T02:04:20;22.10;99.90
58469;DHT22;44257;44.804;10.220;2022-08-30T02:06:46;22.10;99.90
58469;DHT22;44257;44.804;10.220;2022-08-30T02:09:12;22.00;99.90
58469;DHT22;44257;44.804;10.220;2022-08-30T02:11:38;22.00;99.90
58469;DHT22;44257;44.804;10.220;2022-08-30T02:14:05;21.90;99.90
58469;DHT22;44257;44.804;10.220;2022-08-30T02:16:32;22.00;99.90
58469;DHT22;44257;44.804;10.220;2022-08-30T02:18:58;21.90;99.90
58469;DHT22;44257;44.804;10.220;2022-08-30T02:21:25;21.90;99.90
58469;DHT22;44257;44.804;10.220;2022-08-30T02:23:54;22.00;99.90
58469;DHT22;44257;44.804;10.220;2022-08-30T02:26:21;21.90;99.90
58469;DHT22;44257;44.804;10.220;2022-08-30T02:28:47;21.80;99.90
58469;DHT22;44257;44.804;10.220;2022-08-30T02:31:13;21.80;99.90
58469;DHT22;44257;44.804;10.220;2022-08-30T02:33:39;21.70;99.90
58469;DHT22;44257;44.804;10.220;2022-08-30T02:36:06;21.70;99.90
58469;DHT22;44257;44.804;10.220;2022-08-30T02:38:34;21.70;99.90
58469;DHT22;44257;44.804;10.220;2022-08-30T02:41:00;21.60;99.90
58469;DHT22;44257;44.804;10.220;2022-08-30T02:43:26;21.60;99.90
58469;DHT22;44257;44.804;10.220;2022-08-30T02:45:52;21.60;99.90
58469;DHT22;44257;44.804;10.220;2022-08-30T02:48:19;21.60;99.90
58469;DHT22;44257;44.804;10.220;2022-08-30T02:50:48;21.50;99.90
58469;DHT22;44257;44.804;10.220;2022-08-30T02:53:15;21.50;99.90
58469;DHT22;44257;44.804;10.220;2022-08-30T02:55:41;21.50;99.90
58469;DHT22;44257;44.804;10.220;2022-08-30T02:58:07;21.50;99.90
58469;DHT22;44257;44.804;10.220;2022-08-30T03:00:33;21.40;99.90
58469;DHT22;44257;44.804;10.220;2022-08-30T03:03:00;21.40;99.90
58469;DHT22;44257;44.804;10.220;2022-08-30T03:05:29;21.30;99.90
58469;DHT22;44257;44.804;10.220;2022-08-30T03:07:55;21.30;99.90
58469;DHT22;44257;44.804;10.220;2022-08-30T03:10:21;21.20;99.90
58469;DHT22;44257;44.804;10.220;2022-08-30T03:12:48;21.20;99.90
58469;DHT22;44257;44.804;10.220;2022-08-30T03:15:15;21.10;99.90
58469;DHT22;44257;44.804;10.220;2022-08-30T03:17:42;21.10;99.90
58469;DHT22;44257;44.804;10.220;2022-08-30T03:20:08;21.00;99.90
58469;DHT22;44257;44.804;10.220;2022-08-30T03:22:34;21.00;99.90
58469;DHT22;44257;44.804;10.220;2022-08-30T03:25:01;20.90;99.90
58469;DHT22;44257;44.804;10.220;2022-08-30T03:27:28;20.90;99.90
58469;DHT22;44257;44.804;10.220;2022-08-30T03:29:55;20.80;99.90
58469;DHT22;44257;44.804;10.220;2022-08-30T03:32:22;20.80;99.90
58469;DHT22;44257;44.804;10.220;2022-08-30T03:34:48;20.80;99.90
58469;DHT22;44257;44.804;10.220;2022-08-30T03:37:16;20.80;99.90
58469;DHT22;44257;44.804;10.220;2022-08-30T03:39:43;20.80;99.90
58469;DHT22;44257;44.804;10.220;2022-08-30T03:42:10;20.70;99.90
58469;DHT22;44257;44.804;10.220;2022-08-30T03:44:36;20.70;99.90
58469;DHT22;44257;44.804;10.220;2022-08-30T03:47:04;20.70;99.90
58469;DHT22;44257;44.804;10.220;2022-08-30T03:49:30;20.60;99.90
58469;DHT22;44257;44.804;10.220;2022-08-30T03:51:56;20.60;99.90
58469;DHT22;44257;44.804;10.220;2022-08-30T03:54:22;20.60;99.90
58469;DHT22;44257;44.804;10.220;2022-08-30T03:56:48;20.60;99.90
58469;DHT22;44257;44.804;10.220;2022-08-30T03:59:14;20.60;99.90
58469;DHT22;44257;44.804;10.220;2022-08-30T04:01:40;20.60;99.90
58469;DHT22;44257;44.804;10.220;2022-08-30T04:04:07;20.50;99.90
58469;DHT22;44257;44.804;10.220;2022-08-30T04:06:33;20.50;99.90
58469;DHT22;44257;44.804;10.220;2022-08-30T04:08:59;20.50;99.90
58469;DHT22;44257;44.804;10.220;2022-08-30T04:11:25;20.50;99.90
58469;DHT22;44257;44.804;10.220;2022-08-30T04:13:51;20.50;99.90
58469;DHT22;44257;44.804;10.220;2022-08-30T04:16:18;20.50;99.90
58469;DHT22;44257;44.804;10.220;2022-08-30T04:18:44;20.50;99.90
58469;DHT22;44257;44.804;10.220;2022-08-30T04:21:12;20.50;99.90
58469;DHT22;44257;44.804;10.220;2022-08-30T04:23:38;20.40;99.90
58469;DHT22;44257;44.804;10.220;2022-08-30T04:26:04;20.40;99.90
58469;DHT22;44257;44.804;10.220;2022-08-30T04:28:30;20.30;99.90
58469;DHT22;44257;44.804;10.220;2022-08-30T04:30:55;20.30;99.90
58469;DHT22;44257;44.804;10.220;2022-08-30T04:33:21;20.30;99.90
58469;DHT22;44257;44.804;10.220;2022-08-30T04:35:48;20.30;99.90
58469;DHT22;44257;44.804;10.220;2022-08-30T04:38:15;20.30;99.90
58469;DHT22;44257;44.804;10.220;2022-08-30T04:40:42;20.30;99.90
58469;DHT22;44257;44.804;10.220;2022-08-30T04:43:09;20.20;99.90
58469;DHT22;44257;44.804;10.220;2022-08-30T04:45:38;20.20;99.90
58469;DHT22;44257;44.804;10.220;2022-08-30T04:48:05;20.30;99.90
58469;DHT22;44257;44.804;10.220;2022-08-30T04:50:32;20.20;99.90
58469;DHT22;44257;44.804;10.220;2022-08-30T04:53:05;20.20;99.90
58469;DHT22;44257;44.804;10.220;2022-08-30T04:55:31;20.20;99.90
58469;DHT22;44257;44.804;10.220;2022-08-30T04:57:57;20.20;99.90
58469;DHT22;44257;44.804;10.220;2022-08-30T05:00:23;20.20;99.90
58469;DHT22;44257;44.804;10.220;2022-08-30T05:02:49;20.20;99.90
58469;DHT22;44257;44.804;10.220;2022-08-30T05:05:15;20.30;99.90
58469;DHT22;44257;44.804;10.220;2022-08-30T05:07:59;20.20;99.90
58469;DHT22;44257;44.804;10.220;2022-08-30T05:10:26;20.20;99.90
58469;DHT22;44257;44.804;10.220;2022-08-30T05:12:56;20.20;99.90
58469;DHT22;44257;44.804;10.220;2022-08-30T05:15:23;20.30;99.90
58469;DHT22;44257;44.804;10.220;2022-08-30T05:17:51;20.30;99.90
58469;DHT22;44257;44.804;10.220;2022-08-30T05:20:17;20.20;99.90
58469;DHT22;44257;44.804;10.220;2022-08-30T05:22:44;20.20;99.90
58469;DHT22;44257;44.804;10.220;2022-08-30T05:25:19;20.30;99.90
58469;DHT22;44257;44.804;10.220;2022-08-30T05:27:46;20.30;99.90
58469;DHT22;44257;44.804;10.220;2022-08-30T05:30:14;20.50;99.90
58469;DHT22;44257;44.804;10.220;2022-08-30T05:32:40;20.60;99.90
58469;DHT22;44257;44.804;10.220;2022-08-30T05:35:08;20.80;99.90
58469;DHT22;44257;44.804;10.220;2022-08-30T05:37:34;20.80;99.90
58469;DHT22;44257;44.804;10.220;2022-08-30T05:40:00;21.00;99.90
58469;DHT22;44257;44.804;10.220;2022-08-30T05:42:26;21.00;99.90
58469;DHT22;44257;44.804;10.220;2022-08-30T05:44:53;21.10;99.90
58469;DHT22;44257;44.804;10.220;2022-08-30T05:47:21;21.30;99.90
58469;DHT22;44257;44.804;10.220;2022-08-30T05:49:47;21.40;99.90
58469;DHT22;44257;44.804;10.220;2022-08-30T05:52:14;21.70;99.90
58469;DHT22;44257;44.804;10.220;2022-08-30T05:54:43;21.90;99.90
58469;DHT22;44257;44.804;10.220;2022-08-30T05:57:09;22.40;99.90
58469;DHT22;44257;44.804;10.220;2022-08-30T05:59:35;22.70;99.90
58469;DHT22;44257;44.804;10.220;2022-08-30T06:02:01;23.10;99.90
58469;DHT22;44257;44.804;10.220;2022-08-30T06:04:28;23.50;99.90
58469;DHT22;44257;44.804;10.220;2022-08-30T06:06:54;23.80;99.90
58469;DHT22;44257;44.804;10.220;2022-08-30T06:09:20;24.10;99.90
58469;DHT22;44257;44.804;10.220;2022-08-30T06:11:46;24.50;99.90
58469;DHT22;44257;44.804;10.220;2022-08-30T06:14:13;24.80;99.90
58469;DHT22;44257;44.804;10.220;2022-08-30T06:16:39;25.00;99.90
58469;DHT22;44257;44.804;10.220;2022-08-30T06:19:07;25.10;99.90
58469;DHT22;44257;44.804;10.220;2022-08-30T06:21:35;25.20;99.90
58469;DHT22;44257;44.804;10.220;2022-08-30T06:24:04;25.30;99.90
58469;DHT22;44257;44.804;10.220;2022-08-30T06:26:30;25.30;99.90
58469;DHT22;44257;44.804;10.220;2022-08-30T06:28:57;25.20;99.90
58469;DHT22;44257;44.804;10.220;2022-08-30T06:31:25;25.10;99.90
58469;DHT22;44257;44.804;10.220;2022-08-30T06:33:51;25.20;99.90
58469;DHT22;44257;44.804;10.220;2022-08-30T06:36:20;25.10;99.90
58469;DHT22;44257;44.804;10.220;2022-08-30T06:38:48;25.10;99.90
58469;DHT22;44257;44.804;10.220;2022-08-30T06:41:16;25.00;99.90
58469;DHT22;44257;44.804;10.220;2022-08-30T06:43:44;25.00;99.90
58469;DHT22;44257;44.804;10.220;2022-08-30T06:46:14;25.00;99.90
58469;DHT22;44257;44.804;10.220;2022-08-30T06:48:40;25.00;99.90
58469;DHT22;44257;44.804;10.220;2022-08-30T06:51:06;25.10;99.90
58469;DHT22;44257;44.804;10.220;2022-08-30T06:53:34;25.30;99.90
58469;DHT22;44257;44.804;10.220;2022-08-30T06:56:05;25.50;99.90
58469;DHT22;44257;44.804;10.220;2022-08-30T06:58:36;25.70;99.90
58469;DHT22;44257;44.804;10.220;2022-08-30T07:01:04;25.80;99.90
58469;DHT22;44257;44.804;10.220;2022-08-30T07:03:30;25.90;99.90
58469;DHT22;44257;44.804;10.220;2022-08-30T07:05:57;25.90;99.90
58469;DHT22;44257;44.804;10.220;2022-08-30T07:08:24;26.00;99.90
58469;DHT22;44257;44.804;10.220;2022-08-30T07:10:51;26.10;99.90
58469;DHT22;44257;44.804;10.220;2022-08-30T07:13:20;26.30;99.90
58469;DHT22;44257;44.804;10.220;2022-08-30T07:15:46;26.40;99.90
58469;DHT22;44257;44.804;10.220;2022-08-30T07:18:13;26.60;99.90
58469;DHT22;44257;44.804;10.220;2022-08-30T07:21:03;26.80;99.90
58469;DHT22;44257;44.804;10.220;2022-08-30T07:23:32;27.10;99.90
58469;DHT22;44257;44.804;10.220;2022-08-30T07:26:03;27.20;99.90
58469;DHT22;44257;44.804;10.220;2022-08-30T07:28:30;27.30;99.90
58469;DHT22;44257;44.804;10.220;2022-08-30T07:30:55;27.50;99.90
58469;DHT22;44257;44.804;10.220;2022-08-30T07:33:23;27.60;99.90
58469;DHT22;44257;44.804;10.220;2022-08-30T07:35:49;27.70;99.90
58469;DHT22;44257;44.804;10.220;2022-08-30T07:38:15;27.70;99.90
58469;DHT22;44257;44.804;10.220;2022-08-30T07:40:41;27.90;99.90
58469;DHT22;44257;44.804;10.220;2022-08-30T07:43:07;28.10;99.90
58469;DHT22;44257;44.804;10.220;2022-08-30T07:45:34;28.20;99.90
58469;DHT22;44257;44.804;10.220;2022-08-30T07:48:01;28.40;99.90
58469;DHT22;44257;44.804;10.220;2022-08-30T07:50:27;28.50;99.90
58469;DHT22;44257;44.804;10.220;2022-08-30T07:52:53;28.50;99.90
58469;DHT22;44257;44.804;10.220;2022-08-30T07:55:21;28.70;99.90
58469;DHT22;44257;44.804;10.220;2022-08-30T07:57:47;28.70;99.90
58469;DHT22;44257;44.804;10.220;2022-08-30T08:00:13;28.80;99.90
58469;DHT22;44257;44.804;10.220;2022-08-30T08:02:40;28.90;99.90
58469;DHT22;44257;44.804;10.220;2022-08-30T08:05:08;29.00;99.90
58469;DHT22;44257;44.804;10.220;2022-08-30T08:07:34;29.10;99.90
58469;DHT22;44257;44.804;10.220;2022-08-30T08:10:01;29.20;99.90
58469;DHT22;44257;44.804;10.220;2022-08-30T08:12:27;29.40;99.90
58469;DHT22;44257;44.804;10.220;2022-08-30T08:14:53;29.50;99.90
58469;DHT22;44257;44.804;10.220;2022-08-30T08:17:20;29.60;99.90
58469;DHT22;44257;44.804;10.220;2022-08-30T08:19:47;29.80;99.90
58469;DHT22;44257;44.804;10.220;2022-08-30T08:22:13;29.90;99.90
58469;DHT22;44257;44.804;10.220;2022-08-30T08:24:39;30.10;99.80
58469;DHT22;44257;44.804;10.220;2022-08-30T08:27:05;30.10;99.80
58469;DHT22;44257;44.804;10.220;2022-08-30T08:29:31;30.20;99.40
58469;DHT22;44257;44.804;10.220;2022-08-30T08:31:57;30.20;98.50
58469;DHT22;44257;44.804;10.220;2022-08-30T08:34:25;30.20;98.70
58469;DHT22;44257;44.804;10.220;2022-08-30T08:36:52;30.20;98.70
58469;DHT22;44257;44.804;10.220;2022-08-30T08:39:19;30.30;98.30
58469;DHT22;44257;44.804;10.220;2022-08-30T08:44:33;30.40;99.60
58469;DHT22;44257;44.804;10.220;2022-08-30T08:47:12;30.40;99.90
58469;DHT22;44257;44.804;10.220;2022-08-30T08:49:39;30.50;99.70
58469;DHT22;44257;44.804;10.220;2022-08-30T08:52:19;30.60;99.20
58469;DHT22;44257;44.804;10.220;2022-08-30T08:55:09;30.70;98.80
58469;DHT22;44257;44.804;10.220;2022-08-30T08:57:37;30.80;97.90
58469;DHT22;44257;44.804;10.220;2022-08-30T09:00:08;30.90;98.20
58469;DHT22;44257;44.804;10.220;2022-08-30T09:02:44;30.90;97.70
58469;DHT22;44257;44.804;10.220;2022-08-30T09:05:19;31.00;97.10
58469;DHT22;44257;44.804;10.220;2022-08-30T09:08:06;31.30;97.70
58469;DHT22;44257;44.804;10.220;2022-08-30T09:10:33;31.50;97.80
58469;DHT22;44257;44.804;10.220;2022-08-30T09:13:00;31.80;98.10
58469;DHT22;44257;44.804;10.220;2022-08-30T09:15:28;31.90;97.50
58469;DHT22;44257;44.804;10.220;2022-08-30T09:18:04;32.00;95.80
58469;DHT22;44257;44.804;10.220;2022-08-30T09:20:32;32.00;95.40
58469;DHT22;44257;44.804;10.220;2022-08-30T09:25:51;31.70;95.20
58469;DHT22;44257;44.804;10.220;2022-08-30T09:28:25;31.50;95.50
58469;DHT22;44257;44.804;10.220;2022-08-30T09:31:29;31.40;96.50
58469;DHT22;44257;44.804;10.220;2022-08-30T09:34:08;31.60;95.20
58469;DHT22;44257;44.804;10.220;2022-08-30T09:36:42;31.80;95.90
58469;DHT22;44257;44.804;10.220;2022-08-30T09:39:35;32.00;94.70
58469;DHT22;44257;44.804;10.220;2022-08-30T09:42:21;32.30;95.60
58469;DHT22;44257;44.804;10.220;2022-08-30T09:44:49;32.60;96.20
58469;DHT22;44257;44.804;10.220;2022-08-30T09:47:27;32.80;93.70
58469;DHT22;44257;44.804;10.220;2022-08-30T09:50:09;32.90;93.00
58469;DHT22;44257;44.804;10.220;2022-08-30T09:53:08;33.00;94.30
58469;DHT22;44257;44.804;10.220;2022-08-30T09:56:06;33.30;94.20
58469;DHT22;44257;44.804;10.220;2022-08-30T10:01:43;33.80;93.40
58469;DHT22;44257;44.804;10.220;2022-08-30T10:04:24;34.00;92.70
58469;DHT22;44257;44.804;10.220;2022-08-30T10:07:21;33.80;92.50
58469;DHT22;44257;44.804;10.220;2022-08-30T10:09:56;33.90;92.10
58469;DHT22;44257;44.804;10.220;2022-08-30T10:15:45;33.80;89.80
58469;DHT22;44257;44.804;10.220;2022-08-30T10:18:29;33.30;90.90
58469;DHT22;44257;44.804;10.220;2022-08-30T10:23:35;32.70;90.00
58469;DHT22;44257;44.804;10.220;2022-08-30T10:28:58;32.20;91.50
58469;DHT22;44257;44.804;10.220;2022-08-30T10:34:25;32.70;92.00
58469;DHT22;44257;44.804;10.220;2022-08-30T10:37:06;32.80;91.00
58469;DHT22;44257;44.804;10.220;2022-08-30T10:39:49;32.80;92.00
58469;DHT22;44257;44.804;10.220;2022-08-30T10:42:22;33.00;93.10
58469;DHT22;44257;44.804;10.220;2022-08-30T10:44:57;33.30;91.90
58469;DHT22;44257;44.804;10.220;2022-08-30T10:50:14;33.40;89.80
58469;DHT22;44257;44.804;10.220;2022-08-30T10:52:56;33.20;91.30
58469;DHT22;44257;44.804;10.220;2022-08-30T10:55:30;33.30;90.30
58469;DHT22;44257;44.804;10.220;2022-08-30T10:58:04;33.30;90.80
58469;DHT22;44257;44.804;10.220;2022-08-30T11:00:43;33.40;91.70
58469;DHT22;44257;44.804;10.220;2022-08-30T11:06:22;33.60;90.30
58469;DHT22;44257;44.804;10.220;2022-08-30T11:14:18;33.40;88.10
58469;DHT22;44257;44.804;10.220;2022-08-30T11:16:47;33.40;90.20
58469;DHT22;44257;44.804;10.220;2022-08-30T11:21:52;33.30;89.40
58469;DHT22;44257;44.804;10.220;2022-08-30T11:24:19;33.20;89.30
58469;DHT22;44257;44.804;10.220;2022-08-30T11:29:41;33.30;91.20
58469;DHT22;44257;44.804;10.220;2022-08-30T11:40:04;33.50;87.70
58469;DHT22;44257;44.804;10.220;2022-08-30T11:42:36;33.70;88.00
58469;DHT22;44257;44.804;10.220;2022-08-30T11:48:04;34.00;86.40
58469;DHT22;44257;44.804;10.220;2022-08-30T12:01:32;32.80;86.80
58469;DHT22;44257;44.804;10.220;2022-08-30T12:04:11;32.50;86.90
58469;DHT22;44257;44.804;10.220;2022-08-30T12:09:07;32.70;88.50
58469;DHT22;44257;44.804;10.220;2022-08-30T12:14:04;32.80;87.40
58469;DHT22;44257;44.804;10.220;2022-08-30T12:16:38;33.10;89.40
58469;DHT22;44257;44.804;10.220;2022-08-30T12:19:25;33.20;87.10
58469;DHT22;44257;44.804;10.220;2022-08-30T12:21:57;33.00;86.20
58469;DHT22;44257;44.804;10.220;2022-08-30T12:24:33;32.70;85.70
58469;DHT22;44257;44.804;10.220;2022-08-30T12:27:08;32.30;86.60
58469;DHT22;44257;44.804;10.220;2022-08-30T12:30:00;32.10;88.40
58469;DHT22;44257;44.804;10.220;2022-08-30T12:32:29;31.80;89.00
58469;DHT22;44257;44.804;10.220;2022-08-30T12:34:57;31.60;88.70
58469;DHT22;44257;44.804;10.220;2022-08-30T12:37:35;31.50;89.00
58469;DHT22;44257;44.804;10.220;2022-08-30T12:40:13;31.30;88.90
58469;DHT22;44257;44.804;10.220;2022-08-30T12:42:49;31.10;90.00
58469;DHT22;44257;44.804;10.220;2022-08-30T12:45:19;31.00;90.80
58469;DHT22;44257;44.804;10.220;2022-08-30T12:48:05;31.00;90.80
58469;DHT22;44257;44.804;10.220;2022-08-30T12:53:10;30.60;91.60
58469;DHT22;44257;44.804;10.220;2022-08-30T12:55:53;30.50;91.70
58469;DHT22;44257;44.804;10.220;2022-08-30T12:58:41;30.40;92.30
58469;DHT22;44257;44.804;10.220;2022-08-30T13:01:27;30.20;92.50
58469;DHT22;44257;44.804;10.220;2022-08-30T13:06:39;29.90;92.80
58469;DHT22;44257;44.804;10.220;2022-08-30T13:09:26;29.80;93.20
58469;DHT22;44257;44.804;10.220;2022-08-30T13:11:54;29.60;93.40
58469;DHT22;44257;44.804;10.220;2022-08-30T13:14:39;29.50;93.90
58469;DHT22;44257;44.804;10.220;2022-08-30T13:17:08;29.40;94.00
58469;DHT22;44257;44.804;10.220;2022-08-30T13:19:40;29.20;94.20
58469;DHT22;44257;44.804;10.220;2022-08-30T13:22:24;29.10;94.30
58469;DHT22;44257;44.804;10.220;2022-08-30T13:24:51;29.00;94.70
58469;DHT22;44257;44.804;10.220;2022-08-30T13:27:17;28.90;95.10
58469;DHT22;44257;44.804;10.220;2022-08-30T13:29:43;28.90;95.70
58469;DHT22;44257;44.804;10.220;2022-08-30T13:32:09;28.80;96.30
58469;DHT22;44257;44.804;10.220;2022-08-30T13:34:35;28.70;97.00
58469;DHT22;44257;44.804;10.220;2022-08-30T13:37:01;28.60;97.70
58469;DHT22;44257;44.804;10.220;2022-08-30T13:39:28;28.50;98.50
58469;DHT22;44257;44.804;10.220;2022-08-30T13:41:54;28.40;99.50
58469;DHT22;44257;44.804;10.220;2022-08-30T13:44:21;28.30;99.90
58469;DHT22;44257;44.804;10.220;2022-08-30T13:46:50;28.10;99.90
58469;DHT22;44257;44.804;10.220;2022-08-30T13:49:31;27.80;99.90
58469;DHT22;44257;44.804;10.220;2022-08-30T13:51:57;27.50;99.90
58469;DHT22;44257;44.804;10.220;2022-08-30T13:54:24;27.40;99.90
58469;DHT22;44257;44.804;10.220;2022-08-30T13:56:51;27.30;99.90
58469;DHT22;44257;44.804;10.220;2022-08-30T13:59:18;27.20;99.90
58469;DHT22;44257;44.804;10.220;2022-08-30T14:01:44;27.10;99.90
58469;DHT22;44257;44.804;10.220;2022-08-30T14:04:10;27.00;99.90
58469;DHT22;44257;44.804;10.220;2022-08-30T14:06:36;26.80;99.90
58469;DHT22;44257;44.804;10.220;2022-08-30T14:09:02;26.70;99.90
58469;DHT22;44257;44.804;10.220;2022-08-30T14:11:31;26.50;99.90
58469;DHT22;44257;44.804;10.220;2022-08-30T14:13:57;26.30;99.90
58469;DHT22;44257;44.804;10.220;2022-08-30T14:16:23;26.10;99.90
58469;DHT22;44257;44.804;10.220;2022-08-30T14:18:49;25.90;99.90
58469;DHT22;44257;44.804;10.220;2022-08-30T14:21:15;25.70;99.90
58469;DHT22;44257;44.804;10.220;2022-08-30T14:23:41;25.60;99.90
58469;DHT22;44257;44.804;10.220;2022-08-30T14:26:16;25.50;99.90
58469;DHT22;44257;44.804;10.220;2022-08-30T14:28:43;25.40;99.90
58469;DHT22;44257;44.804;10.220;2022-08-30T14:31:10;25.30;99.90
58469;DHT22;44257;44.804;10.220;2022-08-30T14:33:38;25.20;99.90
58469;DHT22;44257;44.804;10.220;2022-08-30T14:36:04;25.10;99.90
58469;DHT22;44257;44.804;10.220;2022-08-30T14:38:30;25.00;99.90
58469;DHT22;44257;44.804;10.220;2022-08-30T14:40:56;25.00;99.90
58469;DHT22;44257;44.804;10.220;2022-08-30T14:43:22;25.10;99.90
58469;DHT22;44257;44.804;10.220;2022-08-30T14:45:48;25.00;99.90
58469;DHT22;44257;44.804;10.220;2022-08-30T14:48:13;25.00;99.90
58469;DHT22;44257;44.804;10.220;2022-08-30T14:50:39;25.10;99.90
58469;DHT22;44257;44.804;10.220;2022-08-30T14:53:05;25.10;99.90
58469;DHT22;44257;44.804;10.220;2022-08-30T14:55:33;25.00;99.90
58469;DHT22;44257;44.804;10.220;2022-08-30T14:57:59;25.00;99.90
58469;DHT22;44257;44.804;10.220;2022-08-30T15:00:25;24.90;99.90
58469;DHT22;44257;44.804;10.220;2022-08-30T15:02:51;24.90;99.90
58469;DHT22;44257;44.804;10.220;2022-08-30T15:05:18;24.90;99.90
58469;DHT22;44257;44.804;10.220;2022-08-30T15:07:47;24.90;99.90
58469;DHT22;44257;44.804;10.220;2022-08-30T15:10:15;25.00;99.90
58469;DHT22;44257;44.804;10.220;2022-08-30T15:12:46;25.00;99.90
58469;DHT22;44257;44.804;10.220;2022-08-30T15:15:14;25.10;99.90
58469;DHT22;44257;44.804;10.220;2022-08-30T15:17:41;25.10;99.90
58469;DHT22;44257;44.804;10.220;2022-08-30T15:20:08;25.10;99.90
58469;DHT22;44257;44.804;10.220;2022-08-30T15:22:34;25.10;99.90
58469;DHT22;44257;44.804;10.220;2022-08-30T15:25:00;25.20;99.90
58469;DHT22;44257;44.804;10.220;2022-08-30T15:27:27;25.20;99.90
58469;DHT22;44257;44.804;10.220;2022-08-30T15:29:53;25.30;99.90
58469;DHT22;44257;44.804;10.220;2022-08-30T15:32:19;25.30;99.90
58469;DHT22;44257;44.804;10.220;2022-08-30T15:34:45;25.40;99.90
58469;DHT22;44257;44.804;10.220;2022-08-30T15:37:10;25.40;99.90
58469;DHT22;44257;44.804;10.220;2022-08-30T15:39:36;25.40;99.90
58469;DHT22;44257;44.804;10.220;2022-08-30T15:42:02;25.50;99.90
58469;DHT22;44257;44.804;10.220;2022-08-30T15:44:31;25.50;99.90
58469;DHT22;44257;44.804;10.220;2022-08-30T15:46:57;25.50;99.90
58469;DHT22;44257;44.804;10.220;2022-08-30T15:49:24;25.50;99.90
58469;DHT22;44257;44.804;10.220;2022-08-30T15:51:51;25.50;99.90
58469;DHT22;44257;44.804;10.220;2022-08-30T15:54:19;25.40;99.90
58469;DHT22;44257;44.804;10.220;2022-08-30T15:56:45;25.30;99.90
58469;DHT22;44257;44.804;10.220;2022-08-30T15:59:11;25.30;99.90
58469;DHT22;44257;44.804;10.220;2022-08-30T16:01:41;25.30;99.90
58469;DHT22;44257;44.804;10.220;2022-08-30T16:04:07;25.20;99.90
58469;DHT22;44257;44.804;10.220;2022-08-30T16:06:34;25.10;99.90
58469;DHT22;44257;44.804;10.220;2022-08-30T16:09:03;25.00;99.90
58469;DHT22;44257;44.804;10.220;2022-08-30T16:11:29;24.90;99.90
58469;DHT22;44257;44.804;10.220;2022-08-30T16:13:55;24.90;99.90
58469;DHT22;44257;44.804;10.220;2022-08-30T16:16:22;24.80;99.90
58469;DHT22;44257;44.804;10.220;2022-08-30T16:18:49;24.80;99.90
58469;DHT22;44257;44.804;10.220;2022-08-30T16:21:24;24.80;99.90
58469;DHT22;44257;44.804;10.220;2022-08-30T16:23:54;24.80;99.90
58469;DHT22;44257;44.804;10.220;2022-08-30T16:26:20;24.80;99.90
58469;DHT22;44257;44.804;10.220;2022-08-30T16:28:46;24.80;99.90
58469;DHT22;44257;44.804;10.220;2022-08-30T16:31:13;24.70;99.90
58469;DHT22;44257;44.804;10.220;2022-08-30T16:33:40;24.70;99.90
58469;DHT22;44257;44.804;10.220;2022-08-30T16:36:07;24.70;99.90
58469;DHT22;44257;44.804;10.220;2022-08-30T16:38:36;24.60;99.90